sensor_id;sensor_type;location;lat;lon;timestamp;temperature;humidity
85378;DHT22;75782;48.632;10.230;2024-02-16T00:00:19;7.70;69.40
85378;DHT22;75782;48.632;10.230;2024-02-16T00:02:45;7.70;69.60
85378;DHT22;75782;48.632;10.230;2024-02-16T00:05:12;7.70;69.80
85378;DHT22;75782;48.632;10.230;2024-02-16T00:07:39;7.60;70.10
85378;DHT22;75782;48.632;10.230;2024-02-16T00:10:06;7.60;70.20
85378;DHT22;75782;48.632;10.230;2024-02-16T00:12:33;7.60;70.00
85378;DHT22;75782;48.632;10.230;2024-02-16T00:15:01;7.60;69.50
85378;DHT22;75782;48.632;10.230;2024-02-16T00:17:28;7.60;69.90
85378;DHT22;75782;48.632;10.230;2024-02-16T00:19:55;7.60;69.80
85378;DHT22;75782;48.632;10.230;2024-02-16T00:22:22;7.60;69.70
85378;DHT22;75782;48.632;10.230;2024-02-16T00:24:48;7.60;69.60
85378;DHT22;75782;48.632;10.230;2024-02-16T00:27:15;7.60;69.40
85378;DHT22;75782;48.632;10.230;2024-02-16T00:29:42;7.60;69.30
85378;DHT22;75782;48.632;10.230;2024-02-16T00:32:08;7.50;69.20
85378;DHT22;75782;48.632;10.230;2024-02-16T00:34:35;7.50;69.60
85378;DHT22;75782;48.632;10.230;2024-02-16T00:37:02;7.50;70.30
85378;DHT22;75782;48.632;10.230;2024-02-16T00:39:28;7.40;70.70
85378;DHT22;75782;48.632;10.230;2024-02-16T00:41:55;7.40;70.90
85378;DHT22;75782;48.632;10.230;2024-02-16T00:44:22;7.40;71.50
85378;DHT22;75782;48.632;10.230;2024-02-16T00:46:49;7.40;72.20
85378;DHT22;75782;48.632;10.230;2024-02-16T00:49:17;7.40;72.10
85378;DHT22;75782;48.632;10.230;2024-02-16T00:51:44;7.40;72.00
85378;DHT22;75782;48.632;10.230;2024-02-16T00:54:11;7.50;71.70
85378;DHT22;75782;48.632;10.230;2024-02-16T00:56:38;7.50;71.70
85378;DHT22;75782;48.632;10.230;2024-02-16T00:59:05;7.50;71.10
85378;DHT22;75782;48.632;10.230;2024-02-16T01:01:31;7.50;70.90
85378;DHT22;75782;48.632;10.230;2024-02-16T01:03:58;7.50;70.70
85378;DHT22;75782;48.632;10.230;2024-02-16T01:06:24;7.50;70.60
85378;DHT22;75782;48.632;10.230;2024-02-16T01:08:51;7.50;70.90
85378;DHT22;75782;48.632;10.230;2024-02-16T01:11:18;7.50;71.10
85378;DHT22;75782;48.632;10.230;2024-02-16T01:13:46;7.40;71.50
85378;DHT22;75782;48.632;10.230;2024-02-16T01:16:12;7.50;71.40
85378;DHT22;75782;48.632;10.230;2024-02-16T01:18:39;7.50;71.40
85378;DHT22;75782;48.632;10.230;2024-02-16T01:21:06;7.50;71.20
85378;DHT22;75782;48.632;10.230;2024-02-16T01:23:33;7.50;71.20
85378;DHT22;75782;48.632;10.230;2024-02-16T01:25:59;7.50;71.10
85378;DHT22;75782;48.632;10.230;2024-02-16T01:28:27;7.50;70.90
85378;DHT22;75782;48.632;10.230;2024-02-16T01:30:53;7.50;70.90
85378;DHT22;75782;48.632;10.230;2024-02-16T01:33:20;7.50;71.00
85378;DHT22;75782;48.632;10.230;2024-02-16T01:35:47;7.50;71.10
85378;DHT22;75782;48.632;10.230;2024-02-16T01:38:13;7.50;71.10
85378;DHT22;75782;48.632;10.230;2024-02-16T01:40:40;7.50;71.30
85378;DHT22;75782;48.632;10.230;2024-02-16T01:43:06;7.50;71.40
85378;DHT22;75782;48.632;10.230;2024-02-16T01:45:33;7.50;71.50
85378;DHT22;75782;48.632;10.230;2024-02-16T01:48:00;7.50;71.30
85378;DHT22;75782;48.632;10.230;2024-02-16T01:50:28;7.50;72.00
85378;DHT22;75782;48.632;10.230;2024-02-16T01:52:55;7.50;71.40
85378;DHT22;75782;48.632;10.230;2024-02-16T01:55:22;7.50;71.40
85378;DHT22;75782;48.632;10.230;2024-02-16T01:57:48;7.50;71.30
85378;DHT22;75782;48.632;10.230;2024-02-16T02:00:15;7.50;71.40
85378;DHT22;75782;48.632;10.230;2024-02-16T02:02:43;7.50;71.50
85378;DHT22;75782;48.632;10.230;2024-02-16T02:05:08;7.50;71.60
85378;DHT22;75782;48.632;10.230;2024-02-16T02:07:35;7.60;71.80
85378;DHT22;75782;48.632;10.230;2024-02-16T02:10:03;7.60;71.50
85378;DHT22;75782;48.632;10.230;2024-02-16T02:12:30;7.60;71.40
85378;DHT22;75782;48.632;10.230;2024-02-16T02:14:56;7.60;71.20
85378;DHT22;75782;48.632;10.230;2024-02-16T02:17:23;7.60;71.00
85378;DHT22;75782;48.632;10.230;2024-02-16T02:19:50;7.60;71.00
85378;DHT22;75782;48.632;10.230;2024-02-16T02:22:17;7.60;71.20
85378;DHT22;75782;48.632;10.230;2024-02-16T02:24:45;7.60;71.20
85378;DHT22;75782;48.632;10.230;2024-02-16T02:27:11;7.50;71.10
85378;DHT22;75782;48.632;10.230;2024-02-16T02:29:37;7.60;71.30
85378;DHT22;75782;48.632;10.230;2024-02-16T02:32:04;7.60;71.40
85378;DHT22;75782;48.632;10.230;2024-02-16T02:34:32;7.60;71.30
85378;DHT22;75782;48.632;10.230;2024-02-16T02:36:58;7.50;71.10
85378;DHT22;75782;48.632;10.230;2024-02-16T02:39:25;7.60;71.20
85378;DHT22;75782;48.632;10.230;2024-02-16T02:41:51;7.50;71.00
85378;DHT22;75782;48.632;10.230;2024-02-16T02:44:18;7.50;71.00
85378;DHT22;75782;48.632;10.230;2024-02-16T02:46:45;7.50;71.10
85378;DHT22;75782;48.632;10.230;2024-02-16T02:49:12;7.50;71.20
85378;DHT22;75782;48.632;10.230;2024-02-16T02:51:39;7.50;71.10
85378;DHT22;75782;48.632;10.230;2024-02-16T02:54:05;7.50;71.10
85378;DHT22;75782;48.632;10.230;2024-02-16T02:56:32;7.50;71.20
85378;DHT22;75782;48.632;10.230;2024-02-16T02:58:58;7.50;71.10
85378;DHT22;75782;48.632;10.230;2024-02-16T03:01:26;7.50;71.10
85378;DHT22;75782;48.632;10.230;2024-02-16T03:03:52;7.50;71.00
85378;DHT22;75782;48.632;10.230;2024-02-16T03:06:19;7.50;71.00
85378;DHT22;75782;48.632;10.230;2024-02-16T03:08:46;7.50;70.90
85378;DHT22;75782;48.632;10.230;2024-02-16T03:11:12;7.50;70.90
85378;DHT22;75782;48.632;10.230;2024-02-16T03:13:39;7.50;71.00
85378;DHT22;75782;48.632;10.230;2024-02-16T03:16:06;7.50;71.00
85378;DHT22;75782;48.632;10.230;2024-02-16T03:18:33;7.50;71.00
85378;DHT22;75782;48.632;10.230;2024-02-16T03:21:00;7.50;71.00
85378;DHT22;75782;48.632;10.230;2024-02-16T03:23:26;7.40;70.80
85378;DHT22;75782;48.632;10.230;2024-02-16T03:25:52;7.40;70.90
85378;DHT22;75782;48.632;10.230;2024-02-16T03:28:19;7.40;70.90
85378;DHT22;75782;48.632;10.230;2024-02-16T03:30:46;7.40;70.90
85378;DHT22;75782;48.632;10.230;2024-02-16T03:33:13;7.40;71.10
85378;DHT22;75782;48.632;10.230;2024-02-16T03:35:40;7.30;71.00
85378;DHT22;75782;48.632;10.230;2024-02-16T03:38:08;7.30;71.10
85378;DHT22;75782;48.632;10.230;2024-02-16T03:40:35;7.30;71.00
85378;DHT22;75782;48.632;10.230;2024-02-16T03:43:02;7.30;71.00
85378;DHT22;75782;48.632;10.230;2024-02-16T03:45:28;7.30;71.00
85378;DHT22;75782;48.632;10.230;2024-02-16T03:47:55;7.30;70.80
85378;DHT22;75782;48.632;10.230;2024-02-16T03:50:22;7.20;70.50
85378;DHT22;75782;48.632;10.230;2024-02-16T03:52:50;7.20;70.50
85378;DHT22;75782;48.632;10.230;2024-02-16T03:55:17;7.20;70.70
85378;DHT22;75782;48.632;10.230;2024-02-16T03:57:44;7.10;70.60
85378;DHT22;75782;48.632;10.230;2024-02-16T04:00:10;7.10;70.60
85378;DHT22;75782;48.632;10.230;2024-02-16T04:02:37;7.10;70.80
85378;DHT22;75782;48.632;10.230;2024-02-16T04:05:04;7.10;70.50
85378;DHT22;75782;48.632;10.230;2024-02-16T04:07:30;7.10;70.60
85378;DHT22;75782;48.632;10.230;2024-02-16T04:09:57;7.00;70.40
85378;DHT22;75782;48.632;10.230;2024-02-16T04:12:24;7.00;70.50
85378;DHT22;75782;48.632;10.230;2024-02-16T04:14:50;7.00;70.40
85378;DHT22;75782;48.632;10.230;2024-02-16T04:17:18;6.90;70.30
85378;DHT22;75782;48.632;10.230;2024-02-16T04:19:45;6.90;70.40
85378;DHT22;75782;48.632;10.230;2024-02-16T04:22:12;6.90;70.50
85378;DHT22;75782;48.632;10.230;2024-02-16T04:24:39;6.90;70.50
85378;DHT22;75782;48.632;10.230;2024-02-16T04:27:05;6.90;70.70
85378;DHT22;75782;48.632;10.230;2024-02-16T04:29:32;6.80;70.80
85378;DHT22;75782;48.632;10.230;2024-02-16T04:31:59;6.80;70.80
85378;DHT22;75782;48.632;10.230;2024-02-16T04:34:25;6.80;70.80
85378;DHT22;75782;48.632;10.230;2024-02-16T04:36:52;6.80;70.70
85378;DHT22;75782;48.632;10.230;2024-02-16T04:39:18;6.80;70.70
85378;DHT22;75782;48.632;10.230;2024-02-16T04:41:45;6.80;70.80
85378;DHT22;75782;48.632;10.230;2024-02-16T04:44:12;6.70;70.90
85378;DHT22;75782;48.632;10.230;2024-02-16T04:46:38;6.70;71.10
85378;DHT22;75782;48.632;10.230;2024-02-16T04:49:05;6.70;71.20
85378;DHT22;75782;48.632;10.230;2024-02-16T04:51:31;6.70;71.20
85378;DHT22;75782;48.632;10.230;2024-02-16T04:53:59;6.70;70.70
85378;DHT22;75782;48.632;10.230;2024-02-16T04:56:26;6.70;71.50
85378;DHT22;75782;48.632;10.230;2024-02-16T04:58:53;6.70;71.80
85378;DHT22;75782;48.632;10.230;2024-02-16T05:01:21;6.70;71.90
85378;DHT22;75782;48.632;10.230;2024-02-16T05:03:47;6.70;71.90
85378;DHT22;75782;48.632;10.230;2024-02-16T05:06:14;6.70;71.90
85378;DHT22;75782;48.632;10.230;2024-02-16T05:08:41;6.70;72.70
85378;DHT22;75782;48.632;10.230;2024-02-16T05:11:07;6.80;72.60
85378;DHT22;75782;48.632;10.230;2024-02-16T05:13:35;6.80;72.70
85378;DHT22;75782;48.632;10.230;2024-02-16T05:16:00;6.80;72.50
85378;DHT22;75782;48.632;10.230;2024-02-16T05:18:27;6.80;72.40
85378;DHT22;75782;48.632;10.230;2024-02-16T05:20:54;6.80;72.10
85378;DHT22;75782;48.632;10.230;2024-02-16T05:23:21;6.80;71.70
85378;DHT22;75782;48.632;10.230;2024-02-16T05:25:48;6.80;71.80
85378;DHT22;75782;48.632;10.230;2024-02-16T05:28:16;6.80;71.50
85378;DHT22;75782;48.632;10.230;2024-02-16T05:30:43;6.80;71.40
85378;DHT22;75782;48.632;10.230;2024-02-16T05:33:11;6.80;71.20
85378;DHT22;75782;48.632;10.230;2024-02-16T05:35:39;6.80;71.10
85378;DHT22;75782;48.632;10.230;2024-02-16T05:38:05;6.80;71.10
85378;DHT22;75782;48.632;10.230;2024-02-16T05:40:31;6.80;71.10
85378;DHT22;75782;48.632;10.230;2024-02-16T05:42:58;6.80;71.20
85378;DHT22;75782;48.632;10.230;2024-02-16T05:45:25;6.80;71.10
85378;DHT22;75782;48.632;10.230;2024-02-16T05:47:53;6.80;71.60
85378;DHT22;75782;48.632;10.230;2024-02-16T05:50:20;6.80;71.70
85378;DHT22;75782;48.632;10.230;2024-02-16T05:52:47;6.70;71.60
85378;DHT22;75782;48.632;10.230;2024-02-16T05:55:13;6.80;71.80
85378;DHT22;75782;48.632;10.230;2024-02-16T05:57:40;6.80;72.00
85378;DHT22;75782;48.632;10.230;2024-02-16T06:00:08;6.80;72.00
85378;DHT22;75782;48.632;10.230;2024-02-16T06:02:34;6.80;72.00
85378;DHT22;75782;48.632;10.230;2024-02-16T06:05:02;6.80;72.00
85378;DHT22;75782;48.632;10.230;2024-02-16T06:07:28;6.80;71.90
85378;DHT22;75782;48.632;10.230;2024-02-16T06:09:56;6.80;71.70
85378;DHT22;75782;48.632;10.230;2024-02-16T06:12:22;6.80;71.60
85378;DHT22;75782;48.632;10.230;2024-02-16T06:14:49;6.80;71.50
85378;DHT22;75782;48.632;10.230;2024-02-16T06:17:16;6.80;71.90
85378;DHT22;75782;48.632;10.230;2024-02-16T06:19:44;6.90;71.80
85378;DHT22;75782;48.632;10.230;2024-02-16T06:22:11;6.90;72.00
85378;DHT22;75782;48.632;10.230;2024-02-16T06:24:38;6.90;72.10
85378;DHT22;75782;48.632;10.230;2024-02-16T06:27:05;6.90;72.10
85378;DHT22;75782;48.632;10.230;2024-02-16T06:29:32;6.90;72.20
85378;DHT22;75782;48.632;10.230;2024-02-16T06:31:58;6.90;72.20
85378;DHT22;75782;48.632;10.230;2024-02-16T06:34:25;6.90;72.40
85378;DHT22;75782;48.632;10.230;2024-02-16T06:36:51;7.00;72.60
85378;DHT22;75782;48.632;10.230;2024-02-16T06:39:19;7.00;72.80
85378;DHT22;75782;48.632;10.230;2024-02-16T06:41:46;7.00;72.90
85378;DHT22;75782;48.632;10.230;2024-02-16T06:44:13;7.10;73.00
85378;DHT22;75782;48.632;10.230;2024-02-16T06:46:41;7.10;72.90
85378;DHT22;75782;48.632;10.230;2024-02-16T06:49:08;7.20;73.00
85378;DHT22;75782;48.632;10.230;2024-02-16T06:51:36;7.30;73.00
85378;DHT22;75782;48.632;10.230;2024-02-16T06:54:02;7.20;72.90
85378;DHT22;75782;48.632;10.230;2024-02-16T06:56:29;7.40;72.80
85378;DHT22;75782;48.632;10.230;2024-02-16T06:58:55;7.40;72.70
85378;DHT22;75782;48.632;10.230;2024-02-16T07:01:23;7.60;72.10
85378;DHT22;75782;48.632;10.230;2024-02-16T07:03:50;7.60;71.80
85378;DHT22;75782;48.632;10.230;2024-02-16T07:06:17;7.60;71.80
85378;DHT22;75782;48.632;10.230;2024-02-16T07:08:43;7.70;71.90
85378;DHT22;75782;48.632;10.230;2024-02-16T07:11:10;7.70;71.90
85378;DHT22;75782;48.632;10.230;2024-02-16T07:13:37;7.70;71.90
85378;DHT22;75782;48.632;10.230;2024-02-16T07:16:04;7.70;71.90
85378;DHT22;75782;48.632;10.230;2024-02-16T07:18:31;7.70;71.90
85378;DHT22;75782;48.632;10.230;2024-02-16T07:20:59;8.00;72.00
85378;DHT22;75782;48.632;10.230;2024-02-16T07:23:26;9.30;71.00
85378;DHT22;75782;48.632;10.230;2024-02-16T07:25:52;9.30;70.90
85378;DHT22;75782;48.632;10.230;2024-02-16T07:28:24;11.50;60.10
85378;DHT22;75782;48.632;10.230;2024-02-16T07:30:51;11.10;60.20
85378;DHT22;75782;48.632;10.230;2024-02-16T07:33:18;11.10;60.20
85378;DHT22;75782;48.632;10.230;2024-02-16T07:35:45;10.80;60.70
85378;DHT22;75782;48.632;10.230;2024-02-16T07:38:11;10.90;60.50
85378;DHT22;75782;48.632;10.230;2024-02-16T07:40:38;12.30;60.20
85378;DHT22;75782;48.632;10.230;2024-02-16T07:43:04;14.30;54.70
85378;DHT22;75782;48.632;10.230;2024-02-16T07:45:31;14.00;52.70
85378;DHT22;75782;48.632;10.230;2024-02-16T07:47:57;13.50;54.00
85378;DHT22;75782;48.632;10.230;2024-02-16T07:50:24;13.50;53.80
85378;DHT22;75782;48.632;10.230;2024-02-16T07:52:51;13.10;54.30
85378;DHT22;75782;48.632;10.230;2024-02-16T07:55:17;12.60;55.20
85378;DHT22;75782;48.632;10.230;2024-02-16T07:57:44;12.20;56.10
85378;DHT22;75782;48.632;10.230;2024-02-16T08:00:11;11.80;57.10
85378;DHT22;75782;48.632;10.230;2024-02-16T08:02:37;11.50;58.00
85378;DHT22;75782;48.632;10.230;2024-02-16T08:05:04;11.30;58.80
85378;DHT22;75782;48.632;10.230;2024-02-16T08:07:31;11.00;59.50
85378;DHT22;75782;48.632;10.230;2024-02-16T08:09:57;10.90;60.10
85378;DHT22;75782;48.632;10.230;2024-02-16T08:12:25;10.60;61.40
85378;DHT22;75782;48.632;10.230;2024-02-16T08:14:51;10.60;61.40
85378;DHT22;75782;48.632;10.230;2024-02-16T08:17:19;10.50;61.80
85378;DHT22;75782;48.632;10.230;2024-02-16T08:19:51;10.50;62.40
85378;DHT22;75782;48.632;10.230;2024-02-16T08:22:14;10.50;62.50
85378;DHT22;75782;48.632;10.230;2024-02-16T08:24:41;10.40;62.40
85378;DHT22;75782;48.632;10.230;2024-02-16T08:27:07;10.90;63.10
85378;DHT22;75782;48.632;10.230;2024-02-16T08:29:34;11.90;59.40
85378;DHT22;75782;48.632;10.230;2024-02-16T08:32:01;12.20;59.10
85378;DHT22;75782;48.632;10.230;2024-02-16T08:34:27;12.40;58.70
85378;DHT22;75782;48.632;10.230;2024-02-16T08:36:54;12.50;58.50
85378;DHT22;75782;48.632;10.230;2024-02-16T08:39:20;12.60;57.70
85378;DHT22;75782;48.632;10.230;2024-02-16T08:41:47;12.60;57.80
85378;DHT22;75782;48.632;10.230;2024-02-16T08:44:14;12.70;57.80
85378;DHT22;75782;48.632;10.230;2024-02-16T08:46:40;12.80;58.10
85378;DHT22;75782;48.632;10.230;2024-02-16T08:49:07;12.90;58.00
85378;DHT22;75782;48.632;10.230;2024-02-16T08:51:33;13.10;58.20
85378;DHT22;75782;48.632;10.230;2024-02-16T08:54:00;13.30;58.40
85378;DHT22;75782;48.632;10.230;2024-02-16T08:56:27;13.90;57.30
85378;DHT22;75782;48.632;10.230;2024-02-16T08:58:54;14.80;55.10
85378;DHT22;75782;48.632;10.230;2024-02-16T09:01:31;15.80;52.50
85378;DHT22;75782;48.632;10.230;2024-02-16T09:03:57;15.70;52.40
85378;DHT22;75782;48.632;10.230;2024-02-16T09:06:24;15.90;52.60
85378;DHT22;75782;48.632;10.230;2024-02-16T09:08:50;16.30;51.10
85378;DHT22;75782;48.632;10.230;2024-02-16T09:11:17;16.90;50.60
85378;DHT22;75782;48.632;10.230;2024-02-16T09:13:43;17.40;49.60
85378;DHT22;75782;48.632;10.230;2024-02-16T09:16:10;17.80;48.50
85378;DHT22;75782;48.632;10.230;2024-02-16T09:18:37;18.40;47.90
85378;DHT22;75782;48.632;10.230;2024-02-16T09:21:04;19.20;46.40
85378;DHT22;75782;48.632;10.230;2024-02-16T09:23:31;20.00;45.00
85378;DHT22;75782;48.632;10.230;2024-02-16T09:25:57;20.00;43.40
85378;DHT22;75782;48.632;10.230;2024-02-16T09:28:25;19.30;43.80
85378;DHT22;75782;48.632;10.230;2024-02-16T09:30:51;19.30;43.80
85378;DHT22;75782;48.632;10.230;2024-02-16T09:33:18;18.80;45.00
85378;DHT22;75782;48.632;10.230;2024-02-16T09:35:44;18.30;46.10
85378;DHT22;75782;48.632;10.230;2024-02-16T09:38:12;17.40;47.70
85378;DHT22;75782;48.632;10.230;2024-02-16T09:40:39;17.30;48.30
85378;DHT22;75782;48.632;10.230;2024-02-16T09:43:06;17.30;48.30
85378;DHT22;75782;48.632;10.230;2024-02-16T09:45:32;17.00;48.50
85378;DHT22;75782;48.632;10.230;2024-02-16T09:47:59;16.70;48.80
85378;DHT22;75782;48.632;10.230;2024-02-16T09:50:25;16.40;50.00
85378;DHT22;75782;48.632;10.230;2024-02-16T09:52:53;16.10;50.30
85378;DHT22;75782;48.632;10.230;2024-02-16T09:55:19;15.80;51.00
85378;DHT22;75782;48.632;10.230;2024-02-16T09:57:46;15.60;51.60
85378;DHT22;75782;48.632;10.230;2024-02-16T10:00:13;15.40;52.40
85378;DHT22;75782;48.632;10.230;2024-02-16T10:02:42;15.30;53.10
85378;DHT22;75782;48.632;10.230;2024-02-16T10:05:14;15.00;54.30
85378;DHT22;75782;48.632;10.230;2024-02-16T10:07:42;14.90;54.20
85378;DHT22;75782;48.632;10.230;2024-02-16T10:10:21;14.80;55.00
85378;DHT22;75782;48.632;10.230;2024-02-16T10:12:47;14.70;55.20
85378;DHT22;75782;48.632;10.230;2024-02-16T10:17:56;14.60;56.40
85378;DHT22;75782;48.632;10.230;2024-02-16T10:20:17;14.70;56.90
85378;DHT22;75782;48.632;10.230;2024-02-16T10:22:40;14.60;56.80
85378;DHT22;75782;48.632;10.230;2024-02-16T10:25:08;14.80;56.40
85378;DHT22;75782;48.632;10.230;2024-02-16T10:27:36;15.20;56.40
85378;DHT22;75782;48.632;10.230;2024-02-16T10:30:03;15.40;56.10
85378;DHT22;75782;48.632;10.230;2024-02-16T10:32:31;15.50;55.40
85378;DHT22;75782;48.632;10.230;2024-02-16T10:34:58;15.60;55.20
85378;DHT22;75782;48.632;10.230;2024-02-16T10:37:24;15.70;54.60
85378;DHT22;75782;48.632;10.230;2024-02-16T10:39:51;15.80;55.50
85378;DHT22;75782;48.632;10.230;2024-02-16T10:42:17;15.90;55.10
85378;DHT22;75782;48.632;10.230;2024-02-16T10:44:45;16.00;55.10
85378;DHT22;75782;48.632;10.230;2024-02-16T10:47:12;16.20;55.00
85378;DHT22;75782;48.632;10.230;2024-02-16T10:49:39;16.40;54.00
85378;DHT22;75782;48.632;10.230;2024-02-16T10:52:07;16.50;54.40
85378;DHT22;75782;48.632;10.230;2024-02-16T10:54:34;16.50;54.40
85378;DHT22;75782;48.632;10.230;2024-02-16T10:57:00;16.60;54.10
85378;DHT22;75782;48.632;10.230;2024-02-16T10:59:27;16.80;53.90
85378;DHT22;75782;48.632;10.230;2024-02-16T11:02:00;17.10;53.70
85378;DHT22;75782;48.632;10.230;2024-02-16T11:04:35;17.10;53.70
85378;DHT22;75782;48.632;10.230;2024-02-16T11:06:54;17.50;53.90
85378;DHT22;75782;48.632;10.230;2024-02-16T11:09:26;17.80;53.30
85378;DHT22;75782;48.632;10.230;2024-02-16T11:11:53;18.00;52.60
85378;DHT22;75782;48.632;10.230;2024-02-16T11:14:21;18.40;50.40
85378;DHT22;75782;48.632;10.230;2024-02-16T11:16:46;18.40;50.40
85378;DHT22;75782;48.632;10.230;2024-02-16T11:19:12;18.40;50.10
85378;DHT22;75782;48.632;10.230;2024-02-16T11:21:39;18.50;50.10
85378;DHT22;75782;48.632;10.230;2024-02-16T11:24:07;18.50;50.10
85378;DHT22;75782;48.632;10.230;2024-02-16T11:26:41;18.40;50.20
85378;DHT22;75782;48.632;10.230;2024-02-16T11:29:00;18.40;50.70
85378;DHT22;75782;48.632;10.230;2024-02-16T11:31:26;18.30;50.80
85378;DHT22;75782;48.632;10.230;2024-02-16T11:33:53;18.30;50.90
85378;DHT22;75782;48.632;10.230;2024-02-16T11:36:20;18.10;49.80
85378;DHT22;75782;48.632;10.230;2024-02-16T11:38:48;18.10;49.70
85378;DHT22;75782;48.632;10.230;2024-02-16T11:41:14;18.10;49.70
85378;DHT22;75782;48.632;10.230;2024-02-16T11:43:41;18.00;49.90
85378;DHT22;75782;48.632;10.230;2024-02-16T11:46:12;18.10;50.00
85378;DHT22;75782;48.632;10.230;2024-02-16T11:48:38;18.20;49.70
85378;DHT22;75782;48.632;10.230;2024-02-16T11:51:04;18.30;50.40
85378;DHT22;75782;48.632;10.230;2024-02-16T11:53:31;18.60;50.10
85378;DHT22;75782;48.632;10.230;2024-02-16T11:55:58;18.80;49.50
85378;DHT22;75782;48.632;10.230;2024-02-16T11:58:24;19.00;49.30
85378;DHT22;75782;48.632;10.230;2024-02-16T12:00:51;19.10;49.00
85378;DHT22;75782;48.632;10.230;2024-02-16T12:03:21;19.20;48.70
85378;DHT22;75782;48.632;10.230;2024-02-16T12:05:52;19.20;48.10
85378;DHT22;75782;48.632;10.230;2024-02-16T12:08:18;19.30;47.90
85378;DHT22;75782;48.632;10.230;2024-02-16T12:10:45;19.30;47.70
85378;DHT22;75782;48.632;10.230;2024-02-16T12:13:12;19.50;47.20
85378;DHT22;75782;48.632;10.230;2024-02-16T12:15:38;19.50;47.10
85378;DHT22;75782;48.632;10.230;2024-02-16T12:18:05;19.50;47.10
85378;DHT22;75782;48.632;10.230;2024-02-16T12:20:33;19.70;46.60
85378;DHT22;75782;48.632;10.230;2024-02-16T12:23:10;19.70;46.50
85378;DHT22;75782;48.632;10.230;2024-02-16T12:25:27;19.70;46.50
85378;DHT22;75782;48.632;10.230;2024-02-16T12:27:53;19.80;46.30
85378;DHT22;75782;48.632;10.230;2024-02-16T12:30:20;19.70;46.50
85378;DHT22;75782;48.632;10.230;2024-02-16T12:32:47;19.60;46.90
85378;DHT22;75782;48.632;10.230;2024-02-16T12:35:15;19.40;46.10
85378;DHT22;75782;48.632;10.230;2024-02-16T12:37:42;19.30;46.40
85378;DHT22;75782;48.632;10.230;2024-02-16T12:40:09;19.20;46.30
85378;DHT22;75782;48.632;10.230;2024-02-16T12:42:35;19.10;46.70
85378;DHT22;75782;48.632;10.230;2024-02-16T12:45:02;19.00;47.10
85378;DHT22;75782;48.632;10.230;2024-02-16T12:47:29;18.90;47.50
85378;DHT22;75782;48.632;10.230;2024-02-16T12:49:56;18.70;47.80
85378;DHT22;75782;48.632;10.230;2024-02-16T12:52:23;18.70;47.70
85378;DHT22;75782;48.632;10.230;2024-02-16T12:54:49;18.60;48.00
85378;DHT22;75782;48.632;10.230;2024-02-16T12:57:16;18.50;48.50
85378;DHT22;75782;48.632;10.230;2024-02-16T12:59:42;18.50;48.30
85378;DHT22;75782;48.632;10.230;2024-02-16T13:02:09;18.50;48.40
85378;DHT22;75782;48.632;10.230;2024-02-16T13:04:36;18.50;48.90
85378;DHT22;75782;48.632;10.230;2024-02-16T13:07:04;18.70;48.90
85378;DHT22;75782;48.632;10.230;2024-02-16T13:09:30;18.70;48.90
85378;DHT22;75782;48.632;10.230;2024-02-16T13:11:57;18.90;48.60
85378;DHT22;75782;48.632;10.230;2024-02-16T13:14:24;18.90;48.10
85378;DHT22;75782;48.632;10.230;2024-02-16T13:16:50;19.00;48.10
85378;DHT22;75782;48.632;10.230;2024-02-16T13:19:18;18.80;48.10
85378;DHT22;75782;48.632;10.230;2024-02-16T13:21:44;18.80;48.10
85378;DHT22;75782;48.632;10.230;2024-02-16T13:24:11;18.70;48.00
85378;DHT22;75782;48.632;10.230;2024-02-16T13:26:37;18.70;48.20
85378;DHT22;75782;48.632;10.230;2024-02-16T13:29:04;18.60;48.90
85378;DHT22;75782;48.632;10.230;2024-02-16T13:31:30;18.60;49.20
85378;DHT22;75782;48.632;10.230;2024-02-16T13:33:58;18.50;49.40
85378;DHT22;75782;48.632;10.230;2024-02-16T13:36:24;18.40;49.00
85378;DHT22;75782;48.632;10.230;2024-02-16T13:38:51;18.40;49.10
85378;DHT22;75782;48.632;10.230;2024-02-16T13:41:18;18.30;50.30
85378;DHT22;75782;48.632;10.230;2024-02-16T13:43:44;18.20;47.80
85378;DHT22;75782;48.632;10.230;2024-02-16T13:46:11;18.10;46.60
85378;DHT22;75782;48.632;10.230;2024-02-16T13:48:38;18.00;47.80
85378;DHT22;75782;48.632;10.230;2024-02-16T13:51:05;18.00;47.20
85378;DHT22;75782;48.632;10.230;2024-02-16T13:53:31;17.90;47.10
85378;DHT22;75782;48.632;10.230;2024-02-16T13:55:58;17.90;47.60
85378;DHT22;75782;48.632;10.230;2024-02-16T13:58:27;17.80;47.70
85378;DHT22;75782;48.632;10.230;2024-02-16T14:00:53;17.80;48.50
85378;DHT22;75782;48.632;10.230;2024-02-16T14:03:20;17.80;48.40
85378;DHT22;75782;48.632;10.230;2024-02-16T14:05:46;17.80;48.40
85378;DHT22;75782;48.632;10.230;2024-02-16T14:08:13;17.70;48.50
85378;DHT22;75782;48.632;10.230;2024-02-16T14:10:39;17.70;49.50
85378;DHT22;75782;48.632;10.230;2024-02-16T14:13:06;17.70;49.70
85378;DHT22;75782;48.632;10.230;2024-02-16T14:15:33;17.60;49.50
85378;DHT22;75782;48.632;10.230;2024-02-16T14:18:01;17.50;49.70
85378;DHT22;75782;48.632;10.230;2024-02-16T14:20:27;17.50;49.70
85378;DHT22;75782;48.632;10.230;2024-02-16T14:22:54;17.50;49.90
85378;DHT22;75782;48.632;10.230;2024-02-16T14:25:21;17.50;50.00
85378;DHT22;75782;48.632;10.230;2024-02-16T14:27:47;17.40;50.30
85378;DHT22;75782;48.632;10.230;2024-02-16T14:30:14;17.40;50.50
85378;DHT22;75782;48.632;10.230;2024-02-16T14:32:40;17.40;50.90
85378;DHT22;75782;48.632;10.230;2024-02-16T14:35:07;17.30;50.90
85378;DHT22;75782;48.632;10.230;2024-02-16T14:37:34;17.30;51.50
85378;DHT22;75782;48.632;10.230;2024-02-16T14:40:00;17.20;52.10
85378;DHT22;75782;48.632;10.230;2024-02-16T14:42:28;17.10;51.70
85378;DHT22;75782;48.632;10.230;2024-02-16T14:44:54;17.10;51.70
85378;DHT22;75782;48.632;10.230;2024-02-16T14:47:21;17.10;51.60
85378;DHT22;75782;48.632;10.230;2024-02-16T14:49:47;17.00;51.30
85378;DHT22;75782;48.632;10.230;2024-02-16T14:52:15;16.90;51.10
85378;DHT22;75782;48.632;10.230;2024-02-16T14:54:42;16.90;51.10
85378;DHT22;75782;48.632;10.230;2024-02-16T14:57:10;16.90;51.30
85378;DHT22;75782;48.632;10.230;2024-02-16T14:59:36;16.90;51.30
85378;DHT22;75782;48.632;10.230;2024-02-16T15:02:03;16.90;51.80
85378;DHT22;75782;48.632;10.230;2024-02-16T15:04:30;16.90;52.00
85378;DHT22;75782;48.632;10.230;2024-02-16T15:06:56;16.80;52.10
85378;DHT22;75782;48.632;10.230;2024-02-16T15:09:23;16.80;52.40
85378;DHT22;75782;48.632;10.230;2024-02-16T15:11:49;16.80;52.70
85378;DHT22;75782;48.632;10.230;2024-02-16T15:14:16;16.70;53.50
85378;DHT22;75782;48.632;10.230;2024-02-16T15:16:42;16.70;53.50
85378;DHT22;75782;48.632;10.230;2024-02-16T15:19:09;16.60;53.20
85378;DHT22;75782;48.632;10.230;2024-02-16T15:21:36;16.50;53.90